sensor_id;sensor_type;location;lat;lon;timestamp;P1;durP1;ratioP1;P2;durP2;ratioP2
78197;SDS011;67472;51.554;7.812;2023-03-01T00:01:05;23.67;;;13.20;;
78197;SDS011;67472;51.554;7.812;2023-03-01T00:03:51;25.30;;;15.82;;
78197;SDS011;67472;51.554;7.812;2023-03-01T00:06:36;27.02;;;16.27;;
78197;SDS011;67472;51.554;7.812;2023-03-01T00:09:28;26.45;;;15.70;;
78197;SDS011;67472;51.554;7.812;2023-03-01T00:12:13;21.27;;;14.90;;
78197;SDS011;67472;51.554;7.812;2023-03-01T00:14:57;22.90;;;13.77;;
78197;SDS011;67472;51.554;7.812;2023-03-01T00:17:42;23.65;;;15.05;;
78197;SDS011;67472;51.554;7.812;2023-03-01T00:20:26;23.63;;;15.32;;
78197;SDS011;67472;51.554;7.812;2023-03-01T00:23:11;22.55;;;15.30;;
78197;SDS011;67472;51.554;7.812;2023-03-01T00:25:55;25.48;;;16.25;;
78197;SDS011;67472;51.554;7.812;2023-03-01T00:28:40;27.73;;;16.80;;
78197;SDS011;67472;51.554;7.812;2023-03-01T00:31:26;25.48;;;16.67;;
78197;SDS011;67472;51.554;7.812;2023-03-01T00:34:13;27.58;;;18.20;;
78197;SDS011;67472;51.554;7.812;2023-03-01T00:36:57;23.25;;;16.23;;
78197;SDS011;67472;51.554;7.812;2023-03-01T00:39:48;24.60;;;17.58;;
78197;SDS011;67472;51.554;7.812;2023-03-01T00:42:33;28.77;;;18.55;;
78197;SDS011;67472;51.554;7.812;2023-03-01T00:45:18;23.25;;;16.45;;
78197;SDS011;67472;51.554;7.812;2023-03-01T00:48:03;24.33;;;16.60;;
78197;SDS011;67472;51.554;7.812;2023-03-01T00:50:49;18.88;;;14.85;;
78197;SDS011;67472;51.554;7.812;2023-03-01T00:53:34;22.17;;;16.13;;
78197;SDS011;67472;51.554;7.812;2023-03-01T00:56:19;25.13;;;15.70;;
78197;SDS011;67472;51.554;7.812;2023-03-01T00:59:03;22.08;;;15.38;;
78197;SDS011;67472;51.554;7.812;2023-03-01T01:01:48;31.00;;;16.52;;
78197;SDS011;67472;51.554;7.812;2023-03-01T01:04:32;22.67;;;15.50;;
78197;SDS011;67472;51.554;7.812;2023-03-01T01:07:17;23.75;;;15.77;;
78197;SDS011;67472;51.554;7.812;2023-03-01T01:10:04;25.23;;;17.70;;
78197;SDS011;67472;51.554;7.812;2023-03-01T01:12:49;22.60;;;16.80;;
78197;SDS011;67472;51.554;7.812;2023-03-01T01:15:34;23.77;;;17.70;;
78197;SDS011;67472;51.554;7.812;2023-03-01T01:18:19;29.48;;;16.95;;
78197;SDS011;67472;51.554;7.812;2023-03-01T01:21:08;26.73;;;17.63;;
78197;SDS011;67472;51.554;7.812;2023-03-01T01:23:54;28.80;;;17.25;;
78197;SDS011;67472;51.554;7.812;2023-03-01T01:26:39;23.85;;;17.05;;
78197;SDS011;67472;51.554;7.812;2023-03-01T01:29:24;22.85;;;15.52;;
78197;SDS011;67472;51.554;7.812;2023-03-01T01:32:09;24.40;;;17.50;;
78197;SDS011;67472;51.554;7.812;2023-03-01T01:34:53;25.10;;;16.05;;
78197;SDS011;67472;51.554;7.812;2023-03-01T01:37:37;24.60;;;15.85;;
78197;SDS011;67472;51.554;7.812;2023-03-01T01:40:22;23.50;;;15.65;;
78197;SDS011;67472;51.554;7.812;2023-03-01T01:43:09;21.02;;;15.38;;
78197;SDS011;67472;51.554;7.812;2023-03-01T01:46:13;22.60;;;15.93;;
78197;SDS011;67472;51.554;7.812;2023-03-01T01:49:16;26.50;;;15.45;;
78197;SDS011;67472;51.554;7.812;2023-03-01T01:52:07;24.55;;;15.38;;
78197;SDS011;67472;51.554;7.812;2023-03-01T01:55:10;23.15;;;15.45;;
78197;SDS011;67472;51.554;7.812;2023-03-01T01:58:02;25.50;;;16.90;;
78197;SDS011;67472;51.554;7.812;2023-03-01T02:00:50;26.30;;;15.23;;
78197;SDS011;67472;51.554;7.812;2023-03-01T02:03:35;19.90;;;14.60;;
78197;SDS011;67472;51.554;7.812;2023-03-01T02:06:27;24.13;;;15.35;;
78197;SDS011;67472;51.554;7.812;2023-03-01T02:09:16;20.88;;;14.30;;
78197;SDS011;67472;51.554;7.812;2023-03-01T02:12:04;25.98;;;16.95;;
78197;SDS011;67472;51.554;7.812;2023-03-01T02:14:49;27.50;;;17.45;;
78197;SDS011;67472;51.554;7.812;2023-03-01T02:17:33;24.83;;;15.43;;
78197;SDS011;67472;51.554;7.812;2023-03-01T02:23:29;24.00;;;16.17;;
78197;SDS011;67472;51.554;7.812;2023-03-01T02:29:19;25.55;;;16.83;;
78197;SDS011;67472;51.554;7.812;2023-03-01T02:32:04;26.30;;;15.88;;
78197;SDS011;67472;51.554;7.812;2023-03-01T02:34:49;23.17;;;15.25;;
78197;SDS011;67472;51.554;7.812;2023-03-01T02:37:36;26.20;;;16.33;;
78197;SDS011;67472;51.554;7.812;2023-03-01T02:40:20;26.40;;;15.98;;
78197;SDS011;67472;51.554;7.812;2023-03-01T02:43:06;21.85;;;14.90;;
78197;SDS011;67472;51.554;7.812;2023-03-01T02:45:56;20.77;;;14.57;;
78197;SDS011;67472;51.554;7.812;2023-03-01T02:48:44;23.15;;;14.35;;
78197;SDS011;67472;51.554;7.812;2023-03-01T02:57:14;24.08;;;15.95;;
78197;SDS011;67472;51.554;7.812;2023-03-01T03:00:02;21.85;;;14.25;;
78197;SDS011;67472;51.554;7.812;2023-03-01T03:02:52;20.40;;;14.05;;
78197;SDS011;67472;51.554;7.812;2023-03-01T03:05:41;23.15;;;15.45;;
78197;SDS011;67472;51.554;7.812;2023-03-01T03:08:25;24.15;;;16.58;;
78197;SDS011;67472;51.554;7.812;2023-03-01T03:11:10;27.40;;;16.02;;
78197;SDS011;67472;51.554;7.812;2023-03-01T03:13:55;25.10;;;16.08;;
78197;SDS011;67472;51.554;7.812;2023-03-01T03:16:41;21.73;;;15.60;;
78197;SDS011;67472;51.554;7.812;2023-03-01T03:19:26;25.08;;;15.38;;
78197;SDS011;67472;51.554;7.812;2023-03-01T03:22:11;25.15;;;16.45;;
78197;SDS011;67472;51.554;7.812;2023-03-01T03:24:56;26.95;;;15.93;;
78197;SDS011;67472;51.554;7.812;2023-03-01T03:27:41;21.25;;;15.73;;
78197;SDS011;67472;51.554;7.812;2023-03-01T03:30:30;26.65;;;15.98;;
78197;SDS011;67472;51.554;7.812;2023-03-01T03:33:15;26.17;;;16.55;;
78197;SDS011;67472;51.554;7.812;2023-03-01T03:35:59;22.67;;;15.90;;
78197;SDS011;67472;51.554;7.812;2023-03-01T03:38:44;22.90;;;15.30;;
78197;SDS011;67472;51.554;7.812;2023-03-01T03:41:29;21.70;;;14.30;;
78197;SDS011;67472;51.554;7.812;2023-03-01T03:44:14;23.42;;;14.35;;
78197;SDS011;67472;51.554;7.812;2023-03-01T03:46:58;19.85;;;13.95;;
78197;SDS011;67472;51.554;7.812;2023-03-01T03:49:43;20.40;;;14.05;;
78197;SDS011;67472;51.554;7.812;2023-03-01T03:52:27;22.95;;;14.65;;
78197;SDS011;67472;51.554;7.812;2023-03-01T03:55:12;19.95;;;14.23;;
78197;SDS011;67472;51.554;7.812;2023-03-01T03:57:58;20.90;;;14.40;;
78197;SDS011;67472;51.554;7.812;2023-03-01T04:00:46;19.30;;;14.25;;
78197;SDS011;67472;51.554;7.812;2023-03-01T04:03:32;20.40;;;14.85;;
78197;SDS011;67472;51.554;7.812;2023-03-01T04:06:18;19.55;;;13.52;;
78197;SDS011;67472;51.554;7.812;2023-03-01T04:09:03;20.85;;;13.95;;
78197;SDS011;67472;51.554;7.812;2023-03-01T04:11:47;20.15;;;14.07;;
78197;SDS011;67472;51.554;7.812;2023-03-01T04:14:32;19.88;;;13.57;;
78197;SDS011;67472;51.554;7.812;2023-03-01T04:17:17;22.55;;;14.75;;
78197;SDS011;67472;51.554;7.812;2023-03-01T04:20:02;24.40;;;14.43;;
78197;SDS011;67472;51.554;7.812;2023-03-01T04:22:56;19.35;;;13.98;;
78197;SDS011;67472;51.554;7.812;2023-03-01T04:25:55;20.17;;;13.05;;
78197;SDS011;67472;51.554;7.812;2023-03-01T04:28:41;19.13;;;14.55;;
78197;SDS011;67472;51.554;7.812;2023-03-01T04:31:29;18.42;;;13.70;;
78197;SDS011;67472;51.554;7.812;2023-03-01T04:34:14;19.85;;;14.55;;
78197;SDS011;67472;51.554;7.812;2023-03-01T04:36:58;22.23;;;14.65;;
78197;SDS011;67472;51.554;7.812;2023-03-01T04:39:42;22.38;;;14.82;;
78197;SDS011;67472;51.554;7.812;2023-03-01T04:42:29;23.98;;;14.55;;
78197;SDS011;67472;51.554;7.812;2023-03-01T04:45:13;23.42;;;14.57;;
78197;SDS011;67472;51.554;7.812;2023-03-01T04:47:58;21.08;;;13.77;;
78197;SDS011;67472;51.554;7.812;2023-03-01T04:50:42;23.10;;;14.82;;
78197;SDS011;67472;51.554;7.812;2023-03-01T04:53:27;19.40;;;14.02;;
78197;SDS011;67472;51.554;7.812;2023-03-01T04:56:12;21.63;;;14.88;;
78197;SDS011;67472;51.554;7.812;2023-03-01T04:58:57;21.08;;;14.95;;
78197;SDS011;67472;51.554;7.812;2023-03-01T05:01:42;20.10;;;15.02;;
78197;SDS011;67472;51.554;7.812;2023-03-01T05:04:26;21.27;;;14.60;;
78197;SDS011;67472;51.554;7.812;2023-03-01T05:07:11;23.25;;;15.55;;
78197;SDS011;67472;51.554;7.812;2023-03-01T05:09:56;20.38;;;14.13;;
78197;SDS011;67472;51.554;7.812;2023-03-01T05:12:41;25.63;;;15.13;;
78197;SDS011;67472;51.554;7.812;2023-03-01T05:15:26;26.30;;;16.33;;
78197;SDS011;67472;51.554;7.812;2023-03-01T05:18:11;25.05;;;15.82;;
78197;SDS011;67472;51.554;7.812;2023-03-01T05:21:00;26.85;;;17.45;;
78197;SDS011;67472;51.554;7.812;2023-03-01T05:23:55;24.42;;;16.77;;
78197;SDS011;67472;51.554;7.812;2023-03-01T05:26:40;24.27;;;16.42;;
78197;SDS011;67472;51.554;7.812;2023-03-01T05:29:25;22.55;;;15.70;;
78197;SDS011;67472;51.554;7.812;2023-03-01T05:32:10;23.05;;;16.60;;
78197;SDS011;67472;51.554;7.812;2023-03-01T05:34:59;20.05;;;14.88;;
78197;SDS011;67472;51.554;7.812;2023-03-01T05:37:44;23.63;;;15.82;;
78197;SDS011;67472;51.554;7.812;2023-03-01T05:40:32;21.17;;;14.50;;
78197;SDS011;67472;51.554;7.812;2023-03-01T05:43:17;24.88;;;14.85;;
78197;SDS011;67472;51.554;7.812;2023-03-01T05:46:01;23.67;;;14.48;;
78197;SDS011;67472;51.554;7.812;2023-03-01T05:48:46;22.02;;;13.73;;
78197;SDS011;67472;51.554;7.812;2023-03-01T05:51:32;19.70;;;13.73;;
78197;SDS011;67472;51.554;7.812;2023-03-01T05:54:18;24.30;;;15.57;;
78197;SDS011;67472;51.554;7.812;2023-03-01T05:57:03;24.38;;;15.15;;
78197;SDS011;67472;51.554;7.812;2023-03-01T05:59:47;22.55;;;14.07;;
78197;SDS011;67472;51.554;7.812;2023-03-01T06:02:32;24.75;;;15.35;;
78197;SDS011;67472;51.554;7.812;2023-03-01T06:05:18;23.27;;;15.23;;
78197;SDS011;67472;51.554;7.812;2023-03-01T06:08:03;23.33;;;15.30;;
78197;SDS011;67472;51.554;7.812;2023-03-01T06:10:48;24.35;;;16.67;;
78197;SDS011;67472;51.554;7.812;2023-03-01T06:13:32;26.27;;;16.80;;
78197;SDS011;67472;51.554;7.812;2023-03-01T06:16:16;21.15;;;15.50;;
78197;SDS011;67472;51.554;7.812;2023-03-01T06:19:01;23.38;;;15.57;;
78197;SDS011;67472;51.554;7.812;2023-03-01T06:21:45;26.00;;;15.77;;
78197;SDS011;67472;51.554;7.812;2023-03-01T06:24:30;22.23;;;14.90;;
78197;SDS011;67472;51.554;7.812;2023-03-01T06:27:14;23.55;;;15.70;;
78197;SDS011;67472;51.554;7.812;2023-03-01T06:29:59;21.42;;;14.27;;
78197;SDS011;67472;51.554;7.812;2023-03-01T06:32:43;22.38;;;15.82;;
78197;SDS011;67472;51.554;7.812;2023-03-01T06:35:29;21.75;;;15.23;;
78197;SDS011;67472;51.554;7.812;2023-03-01T06:38:14;28.27;;;16.48;;
78197;SDS011;67472;51.554;7.812;2023-03-01T06:40:59;28.67;;;17.45;;
78197;SDS011;67472;51.554;7.812;2023-03-01T06:43:43;27.73;;;17.15;;
78197;SDS011;67472;51.554;7.812;2023-03-01T06:46:28;24.65;;;16.35;;
78197;SDS011;67472;51.554;7.812;2023-03-01T06:49:12;24.60;;;17.02;;
78197;SDS011;67472;51.554;7.812;2023-03-01T06:51:57;28.55;;;18.25;;
78197;SDS011;67472;51.554;7.812;2023-03-01T06:54:41;28.27;;;18.55;;
78197;SDS011;67472;51.554;7.812;2023-03-01T06:57:26;33.40;;;17.45;;
78197;SDS011;67472;51.554;7.812;2023-03-01T07:00:11;33.10;;;18.92;;
78197;SDS011;67472;51.554;7.812;2023-03-01T07:02:59;29.33;;;19.05;;
78197;SDS011;67472;51.554;7.812;2023-03-01T07:05:48;28.13;;;19.27;;
78197;SDS011;67472;51.554;7.812;2023-03-01T07:08:33;30.38;;;19.23;;
78197;SDS011;67472;51.554;7.812;2023-03-01T07:11:18;31.95;;;20.85;;
78197;SDS011;67472;51.554;7.812;2023-03-01T07:14:02;29.23;;;19.27;;
78197;SDS011;67472;51.554;7.812;2023-03-01T07:16:47;35.28;;;19.95;;
78197;SDS011;67472;51.554;7.812;2023-03-01T07:19:31;28.42;;;18.45;;
78197;SDS011;67472;51.554;7.812;2023-03-01T07:22:16;32.80;;;21.35;;
78197;SDS011;67472;51.554;7.812;2023-03-01T07:25:01;32.78;;;21.30;;
78197;SDS011;67472;51.554;7.812;2023-03-01T07:27:49;29.45;;;19.25;;
78197;SDS011;67472;51.554;7.812;2023-03-01T07:30:34;33.10;;;20.77;;
78197;SDS011;67472;51.554;7.812;2023-03-01T07:33:19;36.05;;;20.48;;
78197;SDS011;67472;51.554;7.812;2023-03-01T07:36:04;34.40;;;21.30;;
78197;SDS011;67472;51.554;7.812;2023-03-01T07:38:49;37.45;;;22.48;;
78197;SDS011;67472;51.554;7.812;2023-03-01T07:41:34;38.42;;;22.92;;
78197;SDS011;67472;51.554;7.812;2023-03-01T07:44:18;35.45;;;22.60;;
78197;SDS011;67472;51.554;7.812;2023-03-01T07:47:03;35.13;;;23.85;;
78197;SDS011;67472;51.554;7.812;2023-03-01T07:49:48;40.28;;;24.20;;
78197;SDS011;67472;51.554;7.812;2023-03-01T07:52:33;43.55;;;27.23;;
78197;SDS011;67472;51.554;7.812;2023-03-01T07:55:17;39.80;;;26.60;;
78197;SDS011;67472;51.554;7.812;2023-03-01T07:58:01;34.40;;;21.70;;
78197;SDS011;67472;51.554;7.812;2023-03-01T08:00:46;35.13;;;22.33;;
78197;SDS011;67472;51.554;7.812;2023-03-01T08:03:30;32.63;;;21.95;;
78197;SDS011;67472;51.554;7.812;2023-03-01T08:06:15;31.00;;;19.60;;
78197;SDS011;67472;51.554;7.812;2023-03-01T08:09:00;26.98;;;18.45;;
78197;SDS011;67472;51.554;7.812;2023-03-01T08:11:45;30.50;;;18.63;;
78197;SDS011;67472;51.554;7.812;2023-03-01T08:14:30;24.33;;;17.42;;
78197;SDS011;67472;51.554;7.812;2023-03-01T08:17:15;26.30;;;17.05;;
78197;SDS011;67472;51.554;7.812;2023-03-01T08:19:59;21.77;;;14.27;;
78197;SDS011;67472;51.554;7.812;2023-03-01T08:22:43;20.58;;;14.80;;
78197;SDS011;67472;51.554;7.812;2023-03-01T08:25:28;25.95;;;15.20;;
78197;SDS011;67472;51.554;7.812;2023-03-01T08:28:12;19.05;;;14.75;;
78197;SDS011;67472;51.554;7.812;2023-03-01T08:30:57;20.90;;;14.35;;
78197;SDS011;67472;51.554;7.812;2023-03-01T08:33:41;21.63;;;13.27;;
78197;SDS011;67472;51.554;7.812;2023-03-01T08:36:27;20.50;;;13.75;;
78197;SDS011;67472;51.554;7.812;2023-03-01T08:39:15;17.75;;;12.85;;
78197;SDS011;67472;51.554;7.812;2023-03-01T08:42:00;22.58;;;13.88;;
78197;SDS011;67472;51.554;7.812;2023-03-01T08:44:45;20.60;;;12.80;;
78197;SDS011;67472;51.554;7.812;2023-03-01T08:47:29;21.38;;;13.77;;
78197;SDS011;67472;51.554;7.812;2023-03-01T08:50:13;19.75;;;12.63;;
78197;SDS011;67472;51.554;7.812;2023-03-01T08:52:58;17.90;;;13.35;;
78197;SDS011;67472;51.554;7.812;2023-03-01T08:55:42;19.15;;;12.38;;
78197;SDS011;67472;51.554;7.812;2023-03-01T08:58:27;20.38;;;12.82;;
78197;SDS011;67472;51.554;7.812;2023-03-01T09:01:11;16.60;;;11.40;;
78197;SDS011;67472;51.554;7.812;2023-03-01T09:03:58;19.50;;;13.10;;
78197;SDS011;67472;51.554;7.812;2023-03-01T09:06:43;16.63;;;11.93;;
78197;SDS011;67472;51.554;7.812;2023-03-01T09:09:27;20.13;;;12.27;;
78197;SDS011;67472;51.554;7.812;2023-03-01T09:12:12;15.70;;;11.32;;
78197;SDS011;67472;51.554;7.812;2023-03-01T09:14:56;16.73;;;11.52;;
78197;SDS011;67472;51.554;7.812;2023-03-01T09:17:41;14.15;;;10.32;;
78197;SDS011;67472;51.554;7.812;2023-03-01T09:20:25;13.93;;;9.93;;
78197;SDS011;67472;51.554;7.812;2023-03-01T09:23:10;14.60;;;10.50;;
78197;SDS011;67472;51.554;7.812;2023-03-01T09:25:54;16.63;;;10.57;;
78197;SDS011;67472;51.554;7.812;2023-03-01T09:28:39;16.08;;;10.07;;
78197;SDS011;67472;51.554;7.812;2023-03-01T09:31:24;16.52;;;10.57;;
78197;SDS011;67472;51.554;7.812;2023-03-01T09:34:09;17.55;;;10.35;;
78197;SDS011;67472;51.554;7.812;2023-03-01T09:36:54;13.85;;;9.95;;
78197;SDS011;67472;51.554;7.812;2023-03-01T09:39:38;13.13;;;9.23;;
78197;SDS011;67472;51.554;7.812;2023-03-01T09:42:23;10.73;;;8.32;;
78197;SDS011;67472;51.554;7.812;2023-03-01T09:45:11;14.07;;;9.60;;
78197;SDS011;67472;51.554;7.812;2023-03-01T09:48:10;10.82;;;8.68;;
78197;SDS011;67472;51.554;7.812;2023-03-01T09:51:00;12.73;;;9.13;;
78197;SDS011;67472;51.554;7.812;2023-03-01T09:53:50;12.68;;;8.55;;
78197;SDS011;67472;51.554;7.812;2023-03-01T09:56:44;12.90;;;7.88;;
78197;SDS011;67472;51.554;7.812;2023-03-01T09:59:44;12.80;;;10.02;;
78197;SDS011;67472;51.554;7.812;2023-03-01T10:02:51;11.50;;;8.50;;
78197;SDS011;67472;51.554;7.812;2023-03-01T10:05:46;15.68;;;8.40;;
78197;SDS011;67472;51.554;7.812;2023-03-01T10:08:40;12.63;;;8.70;;
78197;SDS011;67472;51.554;7.812;2023-03-01T10:11:35;11.90;;;8.23;;
78197;SDS011;67472;51.554;7.812;2023-03-01T10:14:29;13.82;;;9.20;;
78197;SDS011;67472;51.554;7.812;2023-03-01T10:20:43;11.13;;;8.23;;
78197;SDS011;67472;51.554;7.812;2023-03-01T10:23:34;12.70;;;8.07;;
78197;SDS011;67472;51.554;7.812;2023-03-01T10:26:23;12.38;;;8.18;;
78197;SDS011;67472;51.554;7.812;2023-03-01T10:29:20;12.52;;;8.05;;
78197;SDS011;67472;51.554;7.812;2023-03-01T10:32:14;11.40;;;7.30;;
78197;SDS011;67472;51.554;7.812;2023-03-01T10:34:58;11.93;;;7.68;;
78197;SDS011;67472;51.554;7.812;2023-03-01T10:43:45;13.32;;;7.57;;
78197;SDS011;67472;51.554;7.812;2023-03-01T10:46:30;11.68;;;7.32;;
78197;SDS011;67472;51.554;7.812;2023-03-01T10:49:19;12.10;;;7.63;;
78197;SDS011;67472;51.554;7.812;2023-03-01T10:52:17;11.55;;;7.90;;
78197;SDS011;67472;51.554;7.812;2023-03-01T10:55:04;10.63;;;7.43;;
78197;SDS011;67472;51.554;7.812;2023-03-01T11:00:59;11.75;;;7.97;;
78197;SDS011;67472;51.554;7.812;2023-03-01T11:06:57;11.80;;;7.50;;
78197;SDS011;67472;51.554;7.812;2023-03-01T11:09:44;11.77;;;7.20;;
78197;SDS011;67472;51.554;7.812;2023-03-01T11:12:28;9.35;;;6.82;;
78197;SDS011;67472;51.554;7.812;2023-03-01T11:15:24;11.13;;;8.25;;
78197;SDS011;67472;51.554;7.812;2023-03-01T11:18:21;15.88;;;7.78;;
78197;SDS011;67472;51.554;7.812;2023-03-01T11:21:06;10.38;;;8.02;;
78197;SDS011;67472;51.554;7.812;2023-03-01T11:23:52;13.45;;;8.27;;
78197;SDS011;67472;51.554;7.812;2023-03-01T11:26:38;11.70;;;8.35;;
78197;SDS011;67472;51.554;7.812;2023-03-01T11:29:32;10.63;;;7.18;;
78197;SDS011;67472;51.554;7.812;2023-03-01T11:32:16;11.10;;;7.72;;
78197;SDS011;67472;51.554;7.812;2023-03-01T11:35:14;10.57;;;8.15;;
78197;SDS011;67472;51.554;7.812;2023-03-01T11:41:11;11.98;;;7.78;;
78197;SDS011;67472;51.554;7.812;2023-03-01T11:44:03;11.07;;;8.00;;
78197;SDS011;67472;51.554;7.812;2023-03-01T11:47:04;12.55;;;8.52;;
78197;SDS011;67472;51.554;7.812;2023-03-01T11:49:54;14.98;;;8.30;;
78197;SDS011;67472;51.554;7.812;2023-03-01T11:53:01;10.95;;;7.53;;
78197;SDS011;67472;51.554;7.812;2023-03-01T12:20:32;11.13;;;8.23;;
78197;SDS011;67472;51.554;7.812;2023-03-01T12:23:40;9.57;;;7.10;;
78197;SDS011;67472;51.554;7.812;2023-03-01T12:26:47;12.90;;;8.55;;
78197;SDS011;67472;51.554;7.812;2023-03-01T12:29:40;12.55;;;7.38;;
78197;SDS011;67472;51.554;7.812;2023-03-01T12:32:47;14.35;;;7.90;;
78197;SDS011;67472;51.554;7.812;2023-03-01T12:42:12;11.13;;;7.45;;
78197;SDS011;67472;51.554;7.812;2023-03-01T12:45:04;9.32;;;6.97;;
78197;SDS011;67472;51.554;7.812;2023-03-01T12:48:13;12.32;;;7.00;;
78197;SDS011;67472;51.554;7.812;2023-03-01T12:51:10;14.73;;;7.25;;
78197;SDS011;67472;51.554;7.812;2023-03-01T12:53:58;9.80;;;6.60;;
78197;SDS011;67472;51.554;7.812;2023-03-01T12:56:46;9.65;;;6.35;;
78197;SDS011;67472;51.554;7.812;2023-03-01T12:59:39;9.48;;;7.00;;
78197;SDS011;67472;51.554;7.812;2023-03-01T13:11:41;8.73;;;6.03;;
78197;SDS011;67472;51.554;7.812;2023-03-01T13:17:30;8.15;;;5.80;;
78197;SDS011;67472;51.554;7.812;2023-03-01T13:20:17;10.20;;;6.65;;
78197;SDS011;67472;51.554;7.812;2023-03-01T13:28:56;9.73;;;6.18;;
78197;SDS011;67472;51.554;7.812;2023-03-01T13:34:47;8.05;;;5.65;;
78197;SDS011;67472;51.554;7.812;2023-03-01T13:37:35;7.38;;;6.25;;
78197;SDS011;67472;51.554;7.812;2023-03-01T13:46:50;9.20;;;6.05;;
78197;SDS011;67472;51.554;7.812;2023-03-01T13:50:06;11.38;;;5.85;;
78197;SDS011;67472;51.554;7.812;2023-03-01T13:53:12;7.80;;;6.18;;
78197;SDS011;67472;51.554;7.812;2023-03-01T13:56:08;8.55;;;6.10;;
78197;SDS011;67472;51.554;7.812;2023-03-01T13:59:20;9.52;;;6.57;;
78197;SDS011;67472;51.554;7.812;2023-03-01T14:02:19;9.15;;;5.82;;
78197;SDS011;67472;51.554;7.812;2023-03-01T14:05:03;8.43;;;5.88;;
78197;SDS011;67472;51.554;7.812;2023-03-01T14:07:50;8.80;;;6.47;;
78197;SDS011;67472;51.554;7.812;2023-03-01T14:10:44;8.52;;;6.10;;
78197;SDS011;67472;51.554;7.812;2023-03-01T14:19:28;7.35;;;6.43;;
78197;SDS011;67472;51.554;7.812;2023-03-01T14:31:01;11.48;;;6.07;;
78197;SDS011;67472;51.554;7.812;2023-03-01T14:33:46;6.63;;;5.70;;
78197;SDS011;67472;51.554;7.812;2023-03-01T14:36:38;11.07;;;6.43;;
78197;SDS011;67472;51.554;7.812;2023-03-01T14:39:24;9.25;;;6.53;;
78197;SDS011;67472;51.554;7.812;2023-03-01T14:42:11;8.55;;;6.13;;
78197;SDS011;67472;51.554;7.812;2023-03-01T14:44:57;12.95;;;6.38;;
78197;SDS011;67472;51.554;7.812;2023-03-01T14:47:45;9.15;;;6.22;;
78197;SDS011;67472;51.554;7.812;2023-03-01T14:50:31;9.80;;;6.32;;
78197;SDS011;67472;51.554;7.812;2023-03-01T14:53:19;9.60;;;6.22;;
78197;SDS011;67472;51.554;7.812;2023-03-01T14:56:12;9.63;;;6.47;;
78197;SDS011;67472;51.554;7.812;2023-03-01T14:58:58;9.30;;;5.63;;
78197;SDS011;67472;51.554;7.812;2023-03-01T15:01:43;8.18;;;6.00;;
78197;SDS011;67472;51.554;7.812;2023-03-01T15:04:28;8.27;;;6.15;;
78197;SDS011;67472;51.554;7.812;2023-03-01T15:07:14;6.95;;;5.55;;
78197;SDS011;67472;51.554;7.812;2023-03-01T15:10:00;9.45;;;5.85;;
78197;SDS011;67472;51.554;7.812;2023-03-01T15:12:45;9.00;;;6.60;;
78197;SDS011;67472;51.554;7.812;2023-03-01T15:15:34;8.23;;;6.25;;
78197;SDS011;67472;51.554;7.812;2023-03-01T15:18:20;9.15;;;5.80;;
78197;SDS011;67472;51.554;7.812;2023-03-01T15:21:14;9.32;;;5.95;;
78197;SDS011;67472;51.554;7.812;2023-03-01T15:26:57;9.02;;;5.82;;
78197;SDS011;67472;51.554;7.812;2023-03-01T15:29:50;8.90;;;5.95;;
78197;SDS011;67472;51.554;7.812;2023-03-01T15:32:37;7.22;;;5.60;;
78197;SDS011;67472;51.554;7.812;2023-03-01T15:44:32;7.90;;;5.35;;
78197;SDS011;67472;51.554;7.812;2023-03-01T15:47:22;8.07;;;5.55;;
78197;SDS011;67472;51.554;7.812;2023-03-01T15:50:16;10.43;;;5.78;;
78197;SDS011;67472;51.554;7.812;2023-03-01T15:53:04;8.90;;;5.82;;
78197;SDS011;67472;51.554;7.812;2023-03-01T15:55:55;6.93;;;5.72;;
78197;SDS011;67472;51.554;7.812;2023-03-01T15:58:40;15.63;;;12.38;;
78197;SDS011;67472;51.554;7.812;2023-03-01T16:01:40;10.32;;;6.75;;
78197;SDS011;67472;51.554;7.812;2023-03-01T16:05:22;7.70;;;6.65;;
78197;SDS011;67472;51.554;7.812;2023-03-01T16:08:28;9.00;;;5.72;;
78197;SDS011;67472;51.554;7.812;2023-03-01T16:12:35;7.78;;;5.35;;
78197;SDS011;67472;51.554;7.812;2023-03-01T16:15:39;8.75;;;6.65;;
78197;SDS011;67472;51.554;7.812;2023-03-01T16:18:26;7.88;;;5.95;;
78197;SDS011;67472;51.554;7.812;2023-03-01T16:25:17;9.65;;;6.35;;
78197;SDS011;67472;51.554;7.812;2023-03-01T16:28:03;8.50;;;6.43;;
78197;SDS011;67472;51.554;7.812;2023-03-01T16:30:52;7.78;;;5.13;;
78197;SDS011;67472;51.554;7.812;2023-03-01T16:33:37;10.77;;;7.60;;
78197;SDS011;67472;51.554;7.812;2023-03-01T16:36:22;7.82;;;5.60;;
78197;SDS011;67472;51.554;7.812;2023-03-01T16:39:08;8.82;;;5.63;;
78197;SDS011;67472;51.554;7.812;2023-03-01T16:41:53;8.77;;;5.35;;
78197;SDS011;67472;51.554;7.812;2023-03-01T16:44:38;6.28;;;4.68;;
78197;SDS011;67472;51.554;7.812;2023-03-01T16:47:23;8.90;;;5.68;;
78197;SDS011;67472;51.554;7.812;2023-03-01T16:50:08;6.65;;;5.15;;
78197;SDS011;67472;51.554;7.812;2023-03-01T16:52:53;7.15;;;4.70;;
78197;SDS011;67472;51.554;7.812;2023-03-01T16:55:37;7.03;;;4.65;;
78197;SDS011;67472;51.554;7.812;2023-03-01T16:58:28;8.02;;;5.57;;
78197;SDS011;67472;51.554;7.812;2023-03-01T17:01:17;7.95;;;5.78;;
78197;SDS011;67472;51.554;7.812;2023-03-01T17:04:03;6.93;;;5.78;;
78197;SDS011;67472;51.554;7.812;2023-03-01T17:06:48;9.40;;;5.82;;
78197;SDS011;67472;51.554;7.812;2023-03-01T17:09:36;9.60;;;7.00;;
78197;SDS011;67472;51.554;7.812;2023-03-01T17:12:21;8.45;;;5.80;;
78197;SDS011;67472;51.554;7.812;2023-03-01T17:15:06;9.82;;;6.72;;
78197;SDS011;67472;51.554;7.812;2023-03-01T17:17:50;10.95;;;6.80;;
78197;SDS011;67472;51.554;7.812;2023-03-01T17:20:35;12.48;;;8.73;;
78197;SDS011;67472;51.554;7.812;2023-03-01T17:23:20;15.02;;;10.30;;
78197;SDS011;67472;51.554;7.812;2023-03-01T17:26:05;9.82;;;6.30;;
78197;SDS011;67472;51.554;7.812;2023-03-01T17:28:50;9.65;;;6.18;;
78197;SDS011;67472;51.554;7.812;2023-03-01T17:31:34;8.75;;;6.57;;
78197;SDS011;67472;51.554;7.812;2023-03-01T17:34:19;9.48;;;6.05;;
78197;SDS011;67472;51.554;7.812;2023-03-01T17:37:03;8.38;;;5.40;;
78197;SDS011;67472;51.554;7.812;2023-03-01T17:39:48;7.68;;;5.50;;
78197;SDS011;67472;51.554;7.812;2023-03-01T17:42:32;8.98;;;6.00;;
78197;SDS011;67472;51.554;7.812;2023-03-01T17:45:17;11.32;;;5.70;;
78197;SDS011;67472;51.554;7.812;2023-03-01T17:48:01;9.93;;;5.70;;
78197;SDS011;67472;51.554;7.812;2023-03-01T17:50:46;9.65;;;6.00;;
78197;SDS011;67472;51.554;7.812;2023-03-01T17:53:31;14.32;;;6.95;;
78197;SDS011;67472;51.554;7.812;2023-03-01T17:56:15;10.10;;;6.18;;
78197;SDS011;67472;51.554;7.812;2023-03-01T17:59:00;8.48;;;6.60;;
78197;SDS011;67472;51.554;7.812;2023-03-01T18:01:44;12.43;;;6.82;;
78197;SDS011;67472;51.554;7.812;2023-03-01T18:04:29;8.80;;;6.05;;
78197;SDS011;67472;51.554;7.812;2023-03-01T18:07:15;12.10;;;7.20;;
78197;SDS011;67472;51.554;7.812;2023-03-01T18:09:59;10.82;;;6.45;;
78197;SDS011;67472;51.554;7.812;2023-03-01T18:12:44;11.93;;;7.30;;
78197;SDS011;67472;51.554;7.812;2023-03-01T18:15:29;10.15;;;7.28;;
78197;SDS011;67472;51.554;7.812;2023-03-01T18:18:13;9.85;;;6.45;;
78197;SDS011;67472;51.554;7.812;2023-03-01T18:20:58;13.90;;;7.20;;
78197;SDS011;67472;51.554;7.812;2023-03-01T18:23:44;10.70;;;6.82;;
78197;SDS011;67472;51.554;7.812;2023-03-01T18:26:28;10.82;;;7.93;;
78197;SDS011;67472;51.554;7.812;2023-03-01T18:29:13;11.32;;;7.28;;
78197;SDS011;67472;51.554;7.812;2023-03-01T18:32:04;11.90;;;7.50;;